sensor_id;sensor_type;location;lat;lon;timestamp;pressure;altitude;pressure_sealevel;temperature;humidity
61292;BME280;47165;42.664;23.368;2023-08-21T00:02:23;95341.03;;;23.40;52.54
61292;BME280;47165;42.664;23.368;2023-08-21T00:04:48;95346.78;;;22.83;53.88
61292;BME280;47165;42.664;23.368;2023-08-21T00:07:14;95352.25;;;22.45;55.64
61292;BME280;47165;42.664;23.368;2023-08-21T00:09:39;95346.50;;;22.50;55.36
61292;BME280;47165;42.664;23.368;2023-08-21T00:12:05;95342.91;;;22.59;56.04
61292;BME280;47165;42.664;23.368;2023-08-21T00:14:31;95340.34;;;22.32;56.36
61292;BME280;47165;42.664;23.368;2023-08-21T00:16:57;95347.13;;;22.44;55.85
61292;BME280;47165;42.664;23.368;2023-08-21T00:19:22;95337.28;;;22.26;57.07
61292;BME280;47165;42.664;23.368;2023-08-21T00:21:48;95339.53;;;22.93;53.67
61292;BME280;47165;42.664;23.368;2023-08-21T00:24:13;95346.41;;;22.78;54.64
61292;BME280;47165;42.664;23.368;2023-08-21T00:26:39;95350.53;;;22.54;54.74
61292;BME280;47165;42.664;23.368;2023-08-21T00:29:04;95346.59;;;22.58;55.42
61292;BME280;47165;42.664;23.368;2023-08-21T00:31:30;95339.66;;;22.29;55.35
61292;BME280;47165;42.664;23.368;2023-08-21T00:33:55;95344.13;;;22.29;55.96
61292;BME280;47165;42.664;23.368;2023-08-21T00:36:21;95342.47;;;22.46;55.67
61292;BME280;47165;42.664;23.368;2023-08-21T00:38:47;95348.28;;;22.14;56.17
61292;BME280;47165;42.664;23.368;2023-08-21T00:41:13;95353.16;;;22.72;53.29
61292;BME280;47165;42.664;23.368;2023-08-21T00:43:39;95344.75;;;22.77;53.11
61292;BME280;47165;42.664;23.368;2023-08-21T00:46:05;95350.00;;;22.95;53.83
61292;BME280;47165;42.664;23.368;2023-08-21T00:48:31;95353.13;;;22.46;54.52
61292;BME280;47165;42.664;23.368;2023-08-21T00:50:57;95350.66;;;22.35;55.33
61292;BME280;47165;42.664;23.368;2023-08-21T00:53:24;95362.47;;;22.22;55.64
61292;BME280;47165;42.664;23.368;2023-08-21T00:55:49;95359.72;;;22.24;56.67
61292;BME280;47165;42.664;23.368;2023-08-21T00:58:16;95359.38;;;21.81;57.34
61292;BME280;47165;42.664;23.368;2023-08-21T01:00:45;95360.94;;;22.29;55.68
61292;BME280;47165;42.664;23.368;2023-08-21T01:03:13;95352.41;;;22.62;54.24
61292;BME280;47165;42.664;23.368;2023-08-21T01:05:39;95352.78;;;22.85;53.13
61292;BME280;47165;42.664;23.368;2023-08-21T01:08:15;95356.50;;;22.92;52.91
61292;BME280;47165;42.664;23.368;2023-08-21T01:10:53;95353.53;;;22.95;53.06
61292;BME280;47165;42.664;23.368;2023-08-21T01:13:39;95358.88;;;22.77;52.58
61292;BME280;47165;42.664;23.368;2023-08-21T01:16:09;95347.34;;;22.68;52.93
61292;BME280;47165;42.664;23.368;2023-08-21T01:18:35;95353.88;;;22.56;53.24
61292;BME280;47165;42.664;23.368;2023-08-21T01:21:03;95358.34;;;22.56;53.24
61292;BME280;47165;42.664;23.368;2023-08-21T01:25:55;95356.28;;;22.67;52.84
61292;BME280;47165;42.664;23.368;2023-08-21T01:28:20;95357.31;;;22.66;52.94
61292;BME280;47165;42.664;23.368;2023-08-21T01:30:48;95359.75;;;22.42;54.37
61292;BME280;47165;42.664;23.368;2023-08-21T01:33:16;95353.34;;;22.35;55.65
61292;BME280;47165;42.664;23.368;2023-08-21T01:35:42;95363.31;;;22.05;55.97
61292;BME280;47165;42.664;23.368;2023-08-21T01:38:09;95361.84;;;21.93;57.66
61292;BME280;47165;42.664;23.368;2023-08-21T01:40:35;95360.44;;;21.61;57.09
61292;BME280;47165;42.664;23.368;2023-08-21T01:43:00;95363.53;;;21.84;57.21
61292;BME280;47165;42.664;23.368;2023-08-21T01:45:26;95365.50;;;21.54;59.04
61292;BME280;47165;42.664;23.368;2023-08-21T01:47:51;95369.88;;;21.26;59.43
61292;BME280;47165;42.664;23.368;2023-08-21T01:50:17;95364.41;;;21.37;59.29
61292;BME280;47165;42.664;23.368;2023-08-21T01:52:43;95367.94;;;21.28;59.18
61292;BME280;47165;42.664;23.368;2023-08-21T01:55:09;95364.19;;;21.21;59.40
61292;BME280;47165;42.664;23.368;2023-08-21T01:57:35;95366.66;;;21.32;59.25
61292;BME280;47165;42.664;23.368;2023-08-21T02:00:02;95365.63;;;21.62;58.29
61292;BME280;47165;42.664;23.368;2023-08-21T02:02:29;95366.22;;;21.46;58.78
61292;BME280;47165;42.664;23.368;2023-08-21T02:04:55;95366.28;;;21.27;59.25
61292;BME280;47165;42.664;23.368;2023-08-21T02:07:20;95355.91;;;21.24;59.32
61292;BME280;47165;42.664;23.368;2023-08-21T02:09:46;95360.28;;;21.62;57.80
61292;BME280;47165;42.664;23.368;2023-08-21T02:12:11;95364.00;;;22.07;56.51
61292;BME280;47165;42.664;23.368;2023-08-21T02:14:36;95357.63;;;21.90;57.13
61292;BME280;47165;42.664;23.368;2023-08-21T02:17:02;95358.66;;;21.52;59.23
61292;BME280;47165;42.664;23.368;2023-08-21T02:19:32;95357.69;;;21.43;59.13
61292;BME280;47165;42.664;23.368;2023-08-21T02:21:57;95354.66;;;21.18;59.91
61292;BME280;47165;42.664;23.368;2023-08-21T02:24:25;95355.97;;;21.04;60.11
61292;BME280;47165;42.664;23.368;2023-08-21T02:26:50;95357.94;;;21.02;59.98
61292;BME280;47165;42.664;23.368;2023-08-21T02:29:17;95361.09;;;21.16;59.93
61292;BME280;47165;42.664;23.368;2023-08-21T02:31:42;95354.16;;;21.05;60.45
61292;BME280;47165;42.664;23.368;2023-08-21T02:34:08;95355.69;;;20.98;60.33
61292;BME280;47165;42.664;23.368;2023-08-21T02:36:33;95362.44;;;20.73;61.21
61292;BME280;47165;42.664;23.368;2023-08-21T02:38:59;95361.88;;;20.79;61.30
61292;BME280;47165;42.664;23.368;2023-08-21T02:41:24;95357.81;;;20.84;61.59
61292;BME280;47165;42.664;23.368;2023-08-21T02:43:50;95357.69;;;20.66;61.18
61292;BME280;47165;42.664;23.368;2023-08-21T02:46:16;95352.94;;;20.70;61.29
61292;BME280;47165;42.664;23.368;2023-08-21T02:48:42;95359.38;;;20.67;61.38
61292;BME280;47165;42.664;23.368;2023-08-21T02:51:08;95352.38;;;20.66;61.63
61292;BME280;47165;42.664;23.368;2023-08-21T02:53:33;95358.25;;;20.60;61.64
61292;BME280;47165;42.664;23.368;2023-08-21T02:55:59;95352.81;;;20.72;61.26
61292;BME280;47165;42.664;23.368;2023-08-21T02:58:24;95356.56;;;20.69;61.14
61292;BME280;47165;42.664;23.368;2023-08-21T03:00:50;95359.91;;;20.71;60.92
61292;BME280;47165;42.664;23.368;2023-08-21T03:03:15;95357.69;;;20.86;60.20
61292;BME280;47165;42.664;23.368;2023-08-21T03:05:42;95360.16;;;20.87;60.37
61292;BME280;47165;42.664;23.368;2023-08-21T03:08:07;95362.13;;;20.95;59.48
61292;BME280;47165;42.664;23.368;2023-08-21T03:10:33;95366.75;;;20.93;60.41
61292;BME280;47165;42.664;23.368;2023-08-21T03:12:59;95361.72;;;20.90;59.45
61292;BME280;47165;42.664;23.368;2023-08-21T03:15:25;95368.84;;;20.89;59.97
61292;BME280;47165;42.664;23.368;2023-08-21T03:17:50;95373.03;;;20.82;60.53
61292;BME280;47165;42.664;23.368;2023-08-21T03:20:16;95371.66;;;20.78;60.45
61292;BME280;47165;42.664;23.368;2023-08-21T03:22:43;95373.88;;;20.83;60.15
61292;BME280;47165;42.664;23.368;2023-08-21T03:25:08;95381.41;;;20.87;60.19
61292;BME280;47165;42.664;23.368;2023-08-21T03:27:34;95378.34;;;20.73;60.75
61292;BME280;47165;42.664;23.368;2023-08-21T03:30:05;95382.00;;;20.72;60.13
61292;BME280;47165;42.664;23.368;2023-08-21T03:32:32;95369.13;;;20.57;61.98
61292;BME280;47165;42.664;23.368;2023-08-21T03:34:57;95381.00;;;20.53;61.40
61292;BME280;47165;42.664;23.368;2023-08-21T03:37:22;95380.16;;;20.62;61.24
61292;BME280;47165;42.664;23.368;2023-08-21T03:39:49;95379.91;;;20.65;61.24
61292;BME280;47165;42.664;23.368;2023-08-21T03:42:15;95376.66;;;20.52;61.05
61292;BME280;47165;42.664;23.368;2023-08-21T03:44:40;95380.28;;;20.51;61.21
61292;BME280;47165;42.664;23.368;2023-08-21T03:47:06;95385.38;;;20.14;62.99
61292;BME280;47165;42.664;23.368;2023-08-21T03:49:32;95382.53;;;19.86;64.28
61292;BME280;47165;42.664;23.368;2023-08-21T03:51:57;95377.75;;;20.20;62.98
61292;BME280;47165;42.664;23.368;2023-08-21T03:54:23;95383.06;;;20.49;61.78
61292;BME280;47165;42.664;23.368;2023-08-21T03:56:48;95380.84;;;20.45;61.98
61292;BME280;47165;42.664;23.368;2023-08-21T03:59:14;95382.25;;;20.49;61.81
61292;BME280;47165;42.664;23.368;2023-08-21T04:01:40;95379.31;;;20.52;61.60
61292;BME280;47165;42.664;23.368;2023-08-21T04:04:05;95384.47;;;20.44;62.00
61292;BME280;47165;42.664;23.368;2023-08-21T04:06:31;95382.38;;;20.38;62.41
61292;BME280;47165;42.664;23.368;2023-08-21T04:08:56;95382.38;;;20.38;62.64
61292;BME280;47165;42.664;23.368;2023-08-21T04:11:21;95378.31;;;20.34;62.55
61292;BME280;47165;42.664;23.368;2023-08-21T04:13:47;95386.72;;;20.39;62.64
61292;BME280;47165;42.664;23.368;2023-08-21T04:16:13;95388.09;;;20.53;62.03
61292;BME280;47165;42.664;23.368;2023-08-21T04:18:38;95394.53;;;20.50;61.81
61292;BME280;47165;42.664;23.368;2023-08-21T04:21:04;95391.09;;;20.59;61.72
61292;BME280;47165;42.664;23.368;2023-08-21T04:23:30;95390.91;;;20.51;61.87
61292;BME280;47165;42.664;23.368;2023-08-21T04:26:02;95398.16;;;20.49;62.12
61292;BME280;47165;42.664;23.368;2023-08-21T04:28:30;95399.03;;;20.59;61.80
61292;BME280;47165;42.664;23.368;2023-08-21T04:30:56;95388.94;;;20.53;62.63
61292;BME280;47165;42.664;23.368;2023-08-21T04:33:24;95401.66;;;20.69;61.39
61292;BME280;47165;42.664;23.368;2023-08-21T04:35:50;95395.41;;;20.80;61.09
61292;BME280;47165;42.664;23.368;2023-08-21T04:38:15;95401.38;;;21.01;60.52
61292;BME280;47165;42.664;23.368;2023-08-21T04:40:41;95402.66;;;20.97;60.56
61292;BME280;47165;42.664;23.368;2023-08-21T04:43:06;95403.78;;;21.04;60.56
61292;BME280;47165;42.664;23.368;2023-08-21T04:45:32;95403.22;;;20.91;61.04
61292;BME280;47165;42.664;23.368;2023-08-21T04:47:58;95404.34;;;20.98;61.01
61292;BME280;47165;42.664;23.368;2023-08-21T04:50:24;95398.72;;;21.21;60.33
61292;BME280;47165;42.664;23.368;2023-08-21T04:52:49;95407.88;;;21.36;59.13
61292;BME280;47165;42.664;23.368;2023-08-21T04:55:16;95408.88;;;21.35;59.35
61292;BME280;47165;42.664;23.368;2023-08-21T04:57:41;95413.78;;;21.49;59.02
61292;BME280;47165;42.664;23.368;2023-08-21T05:00:07;95406.78;;;21.48;58.56
61292;BME280;47165;42.664;23.368;2023-08-21T05:02:34;95421.16;;;21.56;58.16
61292;BME280;47165;42.664;23.368;2023-08-21T05:04:59;95418.78;;;21.53;58.37
61292;BME280;47165;42.664;23.368;2023-08-21T05:07:25;95412.06;;;21.58;58.60
61292;BME280;47165;42.664;23.368;2023-08-21T05:09:52;95421.09;;;21.75;57.80
61292;BME280;47165;42.664;23.368;2023-08-21T05:12:17;95422.22;;;21.73;57.92
61292;BME280;47165;42.664;23.368;2023-08-21T05:14:43;95424.06;;;21.62;58.22
61292;BME280;47165;42.664;23.368;2023-08-21T05:17:08;95436.75;;;21.78;57.64
61292;BME280;47165;42.664;23.368;2023-08-21T05:19:34;95431.94;;;21.92;57.27
61292;BME280;47165;42.664;23.368;2023-08-21T05:21:59;95433.31;;;21.96;57.37
61292;BME280;47165;42.664;23.368;2023-08-21T05:24:26;95426.72;;;22.00;57.30
61292;BME280;47165;42.664;23.368;2023-08-21T05:26:51;95431.31;;;22.07;57.20
61292;BME280;47165;42.664;23.368;2023-08-21T05:29:17;95428.34;;;22.10;57.09
61292;BME280;47165;42.664;23.368;2023-08-21T05:31:42;95426.09;;;22.16;56.55
61292;BME280;47165;42.664;23.368;2023-08-21T05:34:08;95430.28;;;22.18;56.69
61292;BME280;47165;42.664;23.368;2023-08-21T05:36:33;95430.28;;;22.18;56.69
61292;BME280;47165;42.664;23.368;2023-08-21T05:39:02;95422.91;;;22.40;55.91
61292;BME280;47165;42.664;23.368;2023-08-21T05:41:31;95417.69;;;22.48;55.96
61292;BME280;47165;42.664;23.368;2023-08-21T05:43:57;95426.72;;;22.55;55.92
61292;BME280;47165;42.664;23.368;2023-08-21T05:46:22;95421.41;;;22.55;55.64
61292;BME280;47165;42.664;23.368;2023-08-21T05:48:48;95414.25;;;22.74;55.45
61292;BME280;47165;42.664;23.368;2023-08-21T05:51:13;95406.06;;;22.85;54.84
61292;BME280;47165;42.664;23.368;2023-08-21T05:53:39;95412.88;;;22.87;54.91
61292;BME280;47165;42.664;23.368;2023-08-21T05:56:04;95416.16;;;22.99;54.85
61292;BME280;47165;42.664;23.368;2023-08-21T05:58:30;95414.91;;;23.03;54.81
61292;BME280;47165;42.664;23.368;2023-08-21T06:00:57;95422.09;;;23.11;54.93
61292;BME280;47165;42.664;23.368;2023-08-21T06:03:23;95414.16;;;23.19;54.63
61292;BME280;47165;42.664;23.368;2023-08-21T06:05:49;95418.44;;;23.30;54.32
61292;BME280;47165;42.664;23.368;2023-08-21T06:08:14;95413.84;;;23.40;54.42
61292;BME280;47165;42.664;23.368;2023-08-21T06:10:40;95417.91;;;23.53;53.47
61292;BME280;47165;42.664;23.368;2023-08-21T06:13:05;95418.13;;;23.85;52.15
61292;BME280;47165;42.664;23.368;2023-08-21T06:15:31;95422.44;;;24.55;50.12
61292;BME280;47165;42.664;23.368;2023-08-21T06:17:58;95415.78;;;24.67;49.65
61292;BME280;47165;42.664;23.368;2023-08-21T06:20:24;95420.78;;;24.28;50.49
61292;BME280;47165;42.664;23.368;2023-08-21T06:22:49;95420.66;;;24.38;50.35
61292;BME280;47165;42.664;23.368;2023-08-21T06:25:15;95413.41;;;24.56;49.68
61292;BME280;47165;42.664;23.368;2023-08-21T06:27:40;95419.44;;;24.66;49.69
61292;BME280;47165;42.664;23.368;2023-08-21T06:30:06;95424.09;;;24.56;49.44
61292;BME280;47165;42.664;23.368;2023-08-21T06:32:32;95424.03;;;24.48;49.74
61292;BME280;47165;42.664;23.368;2023-08-21T06:34:58;95428.59;;;24.56;49.68
61292;BME280;47165;42.664;23.368;2023-08-21T06:37:23;95423.28;;;24.64;49.27
61292;BME280;47165;42.664;23.368;2023-08-21T06:39:50;95424.28;;;24.71;48.81
61292;BME280;47165;42.664;23.368;2023-08-21T06:42:16;95426.28;;;24.85;48.10
61292;BME280;47165;42.664;23.368;2023-08-21T06:44:41;95420.47;;;24.90;48.15
61292;BME280;47165;42.664;23.368;2023-08-21T06:47:07;95426.50;;;25.00;48.22
61292;BME280;47165;42.664;23.368;2023-08-21T06:49:32;95425.16;;;25.13;48.00
61292;BME280;47165;42.664;23.368;2023-08-21T06:51:58;95425.19;;;25.21;48.10
61292;BME280;47165;42.664;23.368;2023-08-21T06:54:23;95424.81;;;25.16;48.11
61292;BME280;47165;42.664;23.368;2023-08-21T06:56:49;95428.00;;;25.19;48.40
61292;BME280;47165;42.664;23.368;2023-08-21T06:59:14;95415.16;;;25.39;47.92
61292;BME280;47165;42.664;23.368;2023-08-21T07:01:40;95429.19;;;25.58;47.21
61292;BME280;47165;42.664;23.368;2023-08-21T07:04:06;95421.28;;;25.73;46.86
61292;BME280;47165;42.664;23.368;2023-08-21T07:06:31;95430.66;;;25.68;46.27
61292;BME280;47165;42.664;23.368;2023-08-21T07:08:57;95424.97;;;25.55;46.56
61292;BME280;47165;42.664;23.368;2023-08-21T07:11:22;95423.16;;;25.64;46.25
61292;BME280;47165;42.664;23.368;2023-08-21T07:13:48;95424.63;;;25.75;45.86
61292;BME280;47165;42.664;23.368;2023-08-21T07:16:15;95424.09;;;25.96;45.59
61292;BME280;47165;42.664;23.368;2023-08-21T07:18:40;95420.53;;;26.12;45.55
61292;BME280;47165;42.664;23.368;2023-08-21T07:21:06;95422.28;;;26.36;44.98
61292;BME280;47165;42.664;23.368;2023-08-21T07:23:31;95416.47;;;26.55;44.26
61292;BME280;47165;42.664;23.368;2023-08-21T07:25:58;95420.56;;;26.74;43.92
61292;BME280;47165;42.664;23.368;2023-08-21T07:28:24;95415.81;;;26.84;44.00
61292;BME280;47165;42.664;23.368;2023-08-21T07:30:59;95406.28;;;27.05;42.82
61292;BME280;47165;42.664;23.368;2023-08-21T07:33:26;95416.56;;;27.24;42.45
61292;BME280;47165;42.664;23.368;2023-08-21T07:36:04;95410.03;;;27.42;41.54
61292;BME280;47165;42.664;23.368;2023-08-21T07:38:31;95409.81;;;27.28;41.63
61292;BME280;47165;42.664;23.368;2023-08-21T07:41:07;95413.84;;;27.47;42.10
61292;BME280;47165;42.664;23.368;2023-08-21T07:43:35;95411.38;;;27.61;41.76
61292;BME280;47165;42.664;23.368;2023-08-21T07:46:05;95407.72;;;27.92;41.68
61292;BME280;47165;42.664;23.368;2023-08-21T07:48:30;95406.59;;;28.01;39.84
61292;BME280;47165;42.664;23.368;2023-08-21T07:50:56;95402.59;;;28.12;39.57
61292;BME280;47165;42.664;23.368;2023-08-21T07:53:22;95402.44;;;28.13;39.08
61292;BME280;47165;42.664;23.368;2023-08-21T07:55:48;95403.06;;;28.15;38.93
61292;BME280;47165;42.664;23.368;2023-08-21T07:58:14;95402.31;;;28.21;38.52
61292;BME280;47165;42.664;23.368;2023-08-21T08:00:40;95402.88;;;28.32;38.16
61292;BME280;47165;42.664;23.368;2023-08-21T08:03:08;95401.81;;;28.47;37.97
61292;BME280;47165;42.664;23.368;2023-08-21T08:05:33;95402.31;;;28.51;38.13
61292;BME280;47165;42.664;23.368;2023-08-21T08:07:59;95391.47;;;28.81;38.44
61292;BME280;47165;42.664;23.368;2023-08-21T08:10:25;95390.44;;;29.03;38.02
61292;BME280;47165;42.664;23.368;2023-08-21T08:12:51;95398.59;;;28.88;37.22
61292;BME280;47165;42.664;23.368;2023-08-21T08:15:17;95385.97;;;28.89;37.03
61292;BME280;47165;42.664;23.368;2023-08-21T08:17:43;95386.75;;;29.04;36.81
61292;BME280;47165;42.664;23.368;2023-08-21T08:20:11;95382.84;;;29.28;36.56
61292;BME280;47165;42.664;23.368;2023-08-21T08:22:37;95378.03;;;29.45;35.76
61292;BME280;47165;42.664;23.368;2023-08-21T08:25:03;95381.63;;;29.59;35.61
61292;BME280;47165;42.664;23.368;2023-08-21T08:27:29;95380.56;;;29.54;35.68
61292;BME280;47165;42.664;23.368;2023-08-21T08:29:55;95381.63;;;29.59;35.63
61292;BME280;47165;42.664;23.368;2023-08-21T08:32:21;95380.53;;;29.75;35.73
61292;BME280;47165;42.664;23.368;2023-08-21T08:34:46;95380.00;;;29.93;35.75
61292;BME280;47165;42.664;23.368;2023-08-21T08:37:12;95381.25;;;29.91;35.04
61292;BME280;47165;42.664;23.368;2023-08-21T08:39:37;95370.47;;;29.91;34.99
61292;BME280;47165;42.664;23.368;2023-08-21T08:42:05;95367.28;;;30.15;35.63
61292;BME280;47165;42.664;23.368;2023-08-21T08:44:34;95368.09;;;30.09;34.77
61292;BME280;47165;42.664;23.368;2023-08-21T08:47:00;95371.28;;;29.84;34.54
61292;BME280;47165;42.664;23.368;2023-08-21T08:49:26;95363.41;;;29.89;34.65
61292;BME280;47165;42.664;23.368;2023-08-21T08:51:52;95369.97;;;30.15;34.29
61292;BME280;47165;42.664;23.368;2023-08-21T08:54:20;95357.03;;;30.39;34.44
61292;BME280;47165;42.664;23.368;2023-08-21T08:56:45;95353.78;;;30.63;33.14
61292;BME280;47165;42.664;23.368;2023-08-21T08:59:11;95356.91;;;30.67;33.26
61292;BME280;47165;42.664;23.368;2023-08-21T09:01:40;95356.72;;;30.68;33.89
61292;BME280;47165;42.664;23.368;2023-08-21T09:04:05;95357.75;;;30.67;32.50
61292;BME280;47165;42.664;23.368;2023-08-21T09:06:32;95343.25;;;30.82;32.44
61292;BME280;47165;42.664;23.368;2023-08-21T09:08:58;95348.41;;;30.70;31.95
61292;BME280;47165;42.664;23.368;2023-08-21T09:11:24;95355.47;;;30.78;32.71
61292;BME280;47165;42.664;23.368;2023-08-21T09:13:50;95355.56;;;30.91;32.57
61292;BME280;47165;42.664;23.368;2023-08-21T09:16:18;95348.72;;;30.95;31.30
61292;BME280;47165;42.664;23.368;2023-08-21T09:18:50;95343.94;;;31.24;30.72
61292;BME280;47165;42.664;23.368;2023-08-21T09:21:20;95348.06;;;31.40;30.71
61292;BME280;47165;42.664;23.368;2023-08-21T09:23:47;95343.09;;;31.37;30.36
61292;BME280;47165;42.664;23.368;2023-08-21T09:26:20;95343.53;;;31.54;30.13
61292;BME280;47165;42.664;23.368;2023-08-21T09:28:50;95344.31;;;31.81;30.45
61292;BME280;47165;42.664;23.368;2023-08-21T09:31:37;95335.97;;;31.89;30.54
61292;BME280;47165;42.664;23.368;2023-08-21T09:34:04;95336.44;;;31.73;29.85
61292;BME280;47165;42.664;23.368;2023-08-21T09:36:33;95334.34;;;31.75;30.34
61292;BME280;47165;42.664;23.368;2023-08-21T09:39:00;95328.72;;;31.90;29.74
61292;BME280;47165;42.664;23.368;2023-08-21T09:41:26;95323.97;;;31.72;29.61
61292;BME280;47165;42.664;23.368;2023-08-21T09:43:52;95328.16;;;31.61;29.82
61292;BME280;47165;42.664;23.368;2023-08-21T09:46:25;95318.81;;;31.50;29.50
61292;BME280;47165;42.664;23.368;2023-08-21T09:48:51;95319.56;;;31.91;29.13
61292;BME280;47165;42.664;23.368;2023-08-21T09:51:17;95318.34;;;32.00;29.83
61292;BME280;47165;42.664;23.368;2023-08-21T09:53:43;95320.47;;;32.30;29.10
61292;BME280;47165;42.664;23.368;2023-08-21T09:56:10;95323.75;;;32.38;28.60
61292;BME280;47165;42.664;23.368;2023-08-21T09:58:36;95314.16;;;32.42;28.16
61292;BME280;47165;42.664;23.368;2023-08-21T10:01:05;95313.31;;;32.48;29.21
61292;BME280;47165;42.664;23.368;2023-08-21T10:03:40;95313.47;;;32.60;28.30
61292;BME280;47165;42.664;23.368;2023-08-21T10:06:08;95301.72;;;32.80;28.44
61292;BME280;47165;42.664;23.368;2023-08-21T10:08:38;95307.03;;;32.93;28.23
61292;BME280;47165;42.664;23.368;2023-08-21T10:11:10;95306.41;;;32.91;27.67
61292;BME280;47165;42.664;23.368;2023-08-21T10:13:37;95300.56;;;32.94;27.46
61292;BME280;47165;42.664;23.368;2023-08-21T10:16:05;95295.88;;;33.15;27.21
61292;BME280;47165;42.664;23.368;2023-08-21T10:18:35;95300.84;;;33.61;26.51
61292;BME280;47165;42.664;23.368;2023-08-21T10:21:18;95298.09;;;33.68;26.76
61292;BME280;47165;42.664;23.368;2023-08-21T10:23:48;95291.84;;;33.42;26.55
61292;BME280;47165;42.664;23.368;2023-08-21T10:26:14;95293.44;;;33.00;26.50
61292;BME280;47165;42.664;23.368;2023-08-21T10:28:55;95286.09;;;32.82;27.25
61292;BME280;47165;42.664;23.368;2023-08-21T10:34:08;95274.53;;;33.25;27.36
61292;BME280;47165;42.664;23.368;2023-08-21T10:39:23;95272.47;;;33.45;26.62
61292;BME280;47165;42.664;23.368;2023-08-21T10:41:56;95262.59;;;33.51;27.03
61292;BME280;47165;42.664;23.368;2023-08-21T10:47:30;95259.88;;;33.76;26.28
61292;BME280;47165;42.664;23.368;2023-08-21T10:50:02;95259.88;;;34.13;26.19
61292;BME280;47165;42.664;23.368;2023-08-21T10:52:30;95254.69;;;34.42;25.37
61292;BME280;47165;42.664;23.368;2023-08-21T10:55:00;95248.59;;;34.58;25.79
61292;BME280;47165;42.664;23.368;2023-08-21T10:57:27;95251.44;;;34.63;24.81
61292;BME280;47165;42.664;23.368;2023-08-21T11:02:24;95246.06;;;34.45;24.66
61292;BME280;47165;42.664;23.368;2023-08-21T11:04:50;95242.88;;;34.66;25.03
61292;BME280;47165;42.664;23.368;2023-08-21T11:07:16;95241.47;;;34.76;25.96
61292;BME280;47165;42.664;23.368;2023-08-21T11:09:42;95241.53;;;34.27;25.42
61292;BME280;47165;42.664;23.368;2023-08-21T11:12:12;95242.50;;;34.33;25.63
61292;BME280;47165;42.664;23.368;2023-08-21T11:14:39;95236.53;;;34.42;25.82
61292;BME280;47165;42.664;23.368;2023-08-21T11:17:05;95241.47;;;34.76;26.28
61292;BME280;47165;42.664;23.368;2023-08-21T11:19:32;95245.88;;;35.00;24.80
61292;BME280;47165;42.664;23.368;2023-08-21T11:21:58;95241.47;;;34.76;24.31
61292;BME280;47165;42.664;23.368;2023-08-21T11:27:07;95238.72;;;35.41;23.97
61292;BME280;47165;42.664;23.368;2023-08-21T11:29:37;95232.09;;;35.14;23.26
61292;BME280;47165;42.664;23.368;2023-08-21T11:32:13;95229.81;;;34.99;22.96
61292;BME280;47165;42.664;23.368;2023-08-21T11:34:41;95221.94;;;34.97;23.20
61292;BME280;47165;42.664;23.368;2023-08-21T11:37:07;95223.31;;;34.88;23.39
61292;BME280;47165;42.664;23.368;2023-08-21T11:39:43;95221.81;;;35.63;24.15
61292;BME280;47165;42.664;23.368;2023-08-21T11:42:11;95216.50;;;36.09;22.11
61292;BME280;47165;42.664;23.368;2023-08-21T11:44:44;95218.16;;;35.69;22.03
61292;BME280;47165;42.664;23.368;2023-08-21T11:47:10;95210.94;;;35.51;21.74
61292;BME280;47165;42.664;23.368;2023-08-21T11:49:37;95219.44;;;35.78;22.68
61292;BME280;47165;42.664;23.368;2023-08-21T11:52:04;95213.03;;;36.13;22.30
61292;BME280;47165;42.664;23.368;2023-08-21T11:54:34;95214.00;;;36.48;20.72
61292;BME280;47165;42.664;23.368;2023-08-21T11:57:03;95208.84;;;36.34;21.30
61292;BME280;47165;42.664;23.368;2023-08-21T11:59:30;95204.91;;;36.42;20.63
61292;BME280;47165;42.664;23.368;2023-08-21T12:01:55;95206.56;;;36.72;20.92
61292;BME280;47165;42.664;23.368;2023-08-21T12:04:21;95217.16;;;37.41;20.51
61292;BME280;47165;42.664;23.368;2023-08-21T12:06:46;95204.38;;;37.80;18.62
61292;BME280;47165;42.664;23.368;2023-08-21T12:09:12;95203.53;;;37.80;17.86
61292;BME280;47165;42.664;23.368;2023-08-21T12:11:37;95208.41;;;38.00;18.75
61292;BME280;47165;42.664;23.368;2023-08-21T12:14:04;95208.81;;;37.87;19.07
61292;BME280;47165;42.664;23.368;2023-08-21T12:16:30;95202.69;;;38.01;19.19
61292;BME280;47165;42.664;23.368;2023-08-21T12:18:55;95191.47;;;38.47;18.97
61292;BME280;47165;42.664;23.368;2023-08-21T12:21:24;95184.69;;;38.77;18.89
61292;BME280;47165;42.664;23.368;2023-08-21T12:23:50;95193.22;;;39.18;17.28
61292;BME280;47165;42.664;23.368;2023-08-21T12:26:16;95197.56;;;39.19;17.57
61292;BME280;47165;42.664;23.368;2023-08-21T12:28:48;95188.81;;;39.17;17.36
61292;BME280;47165;42.664;23.368;2023-08-21T12:31:14;95193.63;;;39.42;17.90
61292;BME280;47165;42.664;23.368;2023-08-21T12:33:40;95191.41;;;38.96;17.72
61292;BME280;47165;42.664;23.368;2023-08-21T12:36:06;95186.00;;;38.47;18.60
61292;BME280;47165;42.664;23.368;2023-08-21T12:38:31;95187.66;;;38.75;17.88
61292;BME280;47165;42.664;23.368;2023-08-21T12:41:02;95175.56;;;38.98;17.35
61292;BME280;47165;42.664;23.368;2023-08-21T12:43:27;95182.91;;;39.30;16.91
61292;BME280;47165;42.664;23.368;2023-08-21T12:45:53;95173.91;;;39.35;16.68
61292;BME280;47165;42.664;23.368;2023-08-21T12:48:19;95181.78;;;39.26;17.08
61292;BME280;47165;42.664;23.368;2023-08-21T12:50:44;95176.28;;;39.21;17.54
61292;BME280;47165;42.664;23.368;2023-08-21T12:53:10;95167.47;;;38.49;18.02
61292;BME280;47165;42.664;23.368;2023-08-21T12:55:35;95156.22;;;38.68;18.22
61292;BME280;47165;42.664;23.368;2023-08-21T12:58:01;95166.72;;;38.86;18.55
61292;BME280;47165;42.664;23.368;2023-08-21T13:00:26;95161.25;;;38.54;18.96
61292;BME280;47165;42.664;23.368;2023-08-21T13:02:52;95152.88;;;38.60;18.46
61292;BME280;47165;42.664;23.368;2023-08-21T13:05:17;95151.78;;;38.61;18.66